createdAt,value
2022-12-28T00:01:26.863Z,3.33
2022-12-28T00:03:28.904Z,4.13
2022-12-28T00:05:31.067Z,3.90
2022-12-28T00:07:33.188Z,4.47
2022-12-28T00:09:35.193Z,4.50
2022-12-28T00:11:37.258Z,4.07
2022-12-28T00:13:39.463Z,4.50
2022-12-28T00:15:41.479Z,4.40
2022-12-28T00:17:43.438Z,4.10
2022-12-28T00:19:45.433Z,3.97
2022-12-28T00:21:47.555Z,3.73
2022-12-28T00:23:51.325Z,4.60
2022-12-28T00:25:53.418Z,3.63
2022-12-28T00:27:55.417Z,3.97
2022-12-28T00:29:57.564Z,3.97
2022-12-28T00:32:01.407Z,4.17
2022-12-28T00:34:04.351Z,4.23
2022-12-28T00:36:06.901Z,4.20
2022-12-28T00:38:09.533Z,4.23
2022-12-28T00:40:11.648Z,4.40
2022-12-28T00:42:13.682Z,3.33
2022-12-28T00:44:15.715Z,4.47
2022-12-28T00:46:17.951Z,4.17
2022-12-28T00:48:19.984Z,5.03
2022-12-28T00:50:22.019Z,3.87
2022-12-28T00:52:24.020Z,3.77
2022-12-28T00:54:26.536Z,4.10
2022-12-28T00:56:28.790Z,4.23
2022-12-28T00:58:30.872Z,3.87
2022-12-28T01:00:33.683Z,3.70
2022-12-28T01:02:35.619Z,5.03
2022-12-28T01:04:38.741Z,4.47
2022-12-28T01:06:40.742Z,4.40
2022-12-28T01:08:43.723Z,4.50
2022-12-28T01:10:46.301Z,4.10
2022-12-28T01:12:48.315Z,4.30
2022-12-28T01:14:50.662Z,4.03
2022-12-28T01:16:52.881Z,3.50
2022-12-28T01:18:57.694Z,4.50
2022-12-28T01:20:59.796Z,4.50
2022-12-28T01:23:02.000Z,4.13
2022-12-28T01:25:04.823Z,3.43
2022-12-28T01:27:07.129Z,3.97
2022-12-28T01:29:09.197Z,3.50
2022-12-28T01:31:16.805Z,3.87
2022-12-28T01:33:18.903Z,3.40
2022-12-28T01:35:20.974Z,4.20
2022-12-28T01:37:23.079Z,4.80
2022-12-28T01:39:26.302Z,4.30
2022-12-28T01:41:30.688Z,3.90
2022-12-28T01:43:55.997Z,3.70
2022-12-28T01:46:00.921Z,4.07
2022-12-28T01:48:03.076Z,3.50
2022-12-28T01:50:11.737Z,3.93
2022-12-28T01:52:24.031Z,4.50
2022-12-28T01:54:29.616Z,3.60
2022-12-28T01:56:31.709Z,3.87
2022-12-28T01:58:34.860Z,4.03
2022-12-28T02:00:37.093Z,3.47
2022-12-28T02:02:41.386Z,4.00
2022-12-28T02:04:45.710Z,4.47
2022-12-28T02:06:48.509Z,3.27
2022-12-28T02:09:00.389Z,3.70
2022-12-28T02:11:05.518Z,3.70
2022-12-28T02:13:08.071Z,3.13
2022-12-28T02:15:10.761Z,3.00
2022-12-28T02:17:13.883Z,3.80
2022-12-28T02:19:20.589Z,3.60
2022-12-28T02:21:56.759Z,3.67
2022-12-28T02:24:14.734Z,4.30
2022-12-28T02:26:22.846Z,3.57
2022-12-28T02:28:58.599Z,3.97
2022-12-28T02:31:17.701Z,3.57
2022-12-28T02:33:33.814Z,4.20
2022-12-28T02:35:38.819Z,4.10
2022-12-28T02:37:42.953Z,4.00
2022-12-28T02:39:51.990Z,3.80
2022-12-28T02:41:55.020Z,3.80
2022-12-28T02:43:58.682Z,3.40
2022-12-28T02:46:41.691Z,4.10
2022-12-28T02:49:05.785Z,3.87
2022-12-28T02:51:51.965Z,4.20
2022-12-28T02:54:04.034Z,3.53
2022-12-28T02:56:31.661Z,3.40
2022-12-28T02:58:58.352Z,4.50
2022-12-28T03:01:22.088Z,3.00
2022-12-28T03:03:52.494Z,3.00
2022-12-28T03:06:32.285Z,3.13
2022-12-28T03:08:53.134Z,4.40
2022-12-28T03:11:09.823Z,3.90
2022-12-28T03:13:44.224Z,3.33
2022-12-28T03:15:52.234Z,3.30
2022-12-28T03:18:12.829Z,3.37
2022-12-28T03:20:40.235Z,3.23
2022-12-28T03:23:02.188Z,3.30
2022-12-28T03:25:29.214Z,3.00
2022-12-28T03:27:51.703Z,3.37
2022-12-28T03:30:32.076Z,3.20
2022-12-28T03:32:34.802Z,3.50
2022-12-28T03:34:38.511Z,3.30
2022-12-28T03:37:07.253Z,3.30
2022-12-28T03:39:25.349Z,2.87
2022-12-28T03:41:35.116Z,3.47
2022-12-28T03:43:55.707Z,3.40
2022-12-28T03:46:23.536Z,3.07
2022-12-28T03:48:26.367Z,2.73
2022-12-28T03:50:29.157Z,2.97
2022-12-28T03:52:32.727Z,3.23
2022-12-28T03:54:35.975Z,2.90
2022-12-28T03:56:45.935Z,2.57
2022-12-28T03:58:49.461Z,2.77
2022-12-28T04:00:54.029Z,3.07
2022-12-28T04:02:56.628Z,3.37
2022-12-28T04:04:59.493Z,2.60
2022-12-28T04:07:01.493Z,3.20
2022-12-28T04:09:04.468Z,2.57
2022-12-28T04:11:10.208Z,2.80
2022-12-28T04:13:12.503Z,2.93
2022-12-28T04:15:37.093Z,2.47
2022-12-28T04:17:39.174Z,3.00
2022-12-28T04:19:41.125Z,3.00
2022-12-28T04:21:43.146Z,3.30
2022-12-28T04:23:45.733Z,2.87
2022-12-28T04:26:04.327Z,3.00
2022-12-28T04:28:07.284Z,3.27
2022-12-28T04:30:27.696Z,3.17
2022-12-28T04:32:29.975Z,2.50
2022-12-28T04:34:32.118Z,2.73
2022-12-28T04:36:45.528Z,2.47
2022-12-28T04:38:49.963Z,3.20
2022-12-28T04:40:51.968Z,2.83
2022-12-28T04:42:53.981Z,2.97
2022-12-28T04:44:56.237Z,2.83
2022-12-28T04:46:58.360Z,3.00
2022-12-28T04:49:00.892Z,3.00
2022-12-28T04:51:10.388Z,3.03
2022-12-28T04:53:12.378Z,3.00
2022-12-28T04:55:31.404Z,2.97
2022-12-28T04:57:35.175Z,2.87
2022-12-28T04:59:37.275Z,2.77
2022-12-28T05:01:39.629Z,2.97
2022-12-28T05:03:43.210Z,2.70
2022-12-28T05:05:45.205Z,3.20
2022-12-28T05:07:47.200Z,2.80
2022-12-28T05:09:49.211Z,2.33
2022-12-28T05:11:51.266Z,2.60
2022-12-28T05:13:53.651Z,2.70
2022-12-28T05:15:56.257Z,2.77
2022-12-28T05:17:58.386Z,2.20
2022-12-28T05:20:00.447Z,2.73
2022-12-28T05:22:07.111Z,2.77
2022-12-28T05:24:09.254Z,3.23
2022-12-28T05:26:13.152Z,2.60
2022-12-28T05:28:15.367Z,2.63
2022-12-28T05:30:17.660Z,3.27
2022-12-28T05:32:19.672Z,2.90
2022-12-28T05:34:21.833Z,2.97
2022-12-28T05:36:27.140Z,3.50
2022-12-28T05:38:29.273Z,3.27
2022-12-28T05:40:31.488Z,3.60
2022-12-28T05:42:35.532Z,3.87
2022-12-28T05:44:37.593Z,3.57
2022-12-28T05:46:39.637Z,3.07
2022-12-28T05:48:42.926Z,3.90
2022-12-28T05:50:44.938Z,3.70
2022-12-28T05:52:46.935Z,3.10
2022-12-28T05:54:49.011Z,3.50
2022-12-28T05:56:52.447Z,3.27
2022-12-28T05:58:59.422Z,3.20
2022-12-28T06:01:13.191Z,3.33
2022-12-28T06:03:15.436Z,3.57
2022-12-28T06:05:19.827Z,4.37
2022-12-28T06:07:22.454Z,3.40
2022-12-28T06:09:24.499Z,5.00
2022-12-28T06:11:28.143Z,3.87
2022-12-28T06:13:32.166Z,3.80
2022-12-28T06:15:34.480Z,3.90
2022-12-28T06:17:36.640Z,3.93
2022-12-28T06:19:38.641Z,3.90
2022-12-28T06:21:41.433Z,4.47
2022-12-28T06:23:44.263Z,3.90
2022-12-28T06:25:46.224Z,4.10
2022-12-28T06:27:48.226Z,4.57
2022-12-28T06:29:50.262Z,4.30
2022-12-28T06:31:53.906Z,4.17
2022-12-28T06:33:57.904Z,4.40
2022-12-28T06:36:00.325Z,3.80
2022-12-28T06:38:02.394Z,3.87
2022-12-28T06:40:04.887Z,4.97
2022-12-28T06:42:07.075Z,4.80
2022-12-28T06:44:11.123Z,4.20
2022-12-28T06:46:14.313Z,4.83
2022-12-28T06:48:16.329Z,4.63
2022-12-28T06:50:18.383Z,4.70
2022-12-28T06:52:20.440Z,4.93
2022-12-28T06:54:22.506Z,5.03
2022-12-28T06:56:33.128Z,5.50
2022-12-28T06:58:35.096Z,5.20
2022-12-28T07:00:37.127Z,4.97
2022-12-28T07:02:39.226Z,5.57
2022-12-28T07:04:41.624Z,4.57
2022-12-28T07:06:44.426Z,4.30
2022-12-28T07:08:47.139Z,4.63
2022-12-28T07:10:49.235Z,4.47
2022-12-28T07:12:51.451Z,4.60
2022-12-28T07:14:53.419Z,4.60
2022-12-28T07:16:55.435Z,3.90
2022-12-28T07:18:59.133Z,4.23
2022-12-28T07:21:07.288Z,4.57
2022-12-28T07:23:09.398Z,4.53
2022-12-28T07:25:11.419Z,4.10
2022-12-28T07:27:15.503Z,4.03
2022-12-28T07:29:17.522Z,4.60
2022-12-28T07:31:23.897Z,4.20
2022-12-28T07:33:25.953Z,4.33
2022-12-28T07:35:27.998Z,3.80
2022-12-28T07:37:30.037Z,3.70
2022-12-28T07:39:32.094Z,4.10
2022-12-28T07:41:36.106Z,3.63
2022-12-28T07:43:40.892Z,4.20
2022-12-28T07:45:43.101Z,4.13
2022-12-28T07:47:45.210Z,3.37
2022-12-28T07:49:47.251Z,3.67
2022-12-28T07:51:49.534Z,3.93
2022-12-28T07:53:52.555Z,4.50
2022-12-28T07:55:56.666Z,3.57
2022-12-28T07:57:58.860Z,3.77
2022-12-28T08:00:01.007Z,4.00
2022-12-28T08:02:03.175Z,3.60
2022-12-28T08:04:07.937Z,4.50
2022-12-28T08:06:14.948Z,3.60
2022-12-28T08:08:17.090Z,3.40
2022-12-28T08:10:19.175Z,3.60
2022-12-28T08:12:21.458Z,3.90
2022-12-28T08:14:23.633Z,3.27
2022-12-28T08:16:28.141Z,3.63
2022-12-28T08:18:30.835Z,3.90
2022-12-28T08:20:32.760Z,3.73
2022-12-28T08:22:34.801Z,3.70
2022-12-28T08:24:36.901Z,3.20
2022-12-28T08:26:40.489Z,3.43
2022-12-28T08:28:43.971Z,3.63
2022-12-28T08:30:46.026Z,2.80
2022-12-28T08:32:48.132Z,3.43
2022-12-28T08:34:50.198Z,3.93
2022-12-28T08:36:54.824Z,2.90
2022-12-28T08:39:00.224Z,3.30
2022-12-28T08:41:04.505Z,3.23
2022-12-28T08:43:06.584Z,4.70
2022-12-28T08:45:12.214Z,4.30
2022-12-28T08:47:14.291Z,3.40
2022-12-28T08:49:16.302Z,4.13
2022-12-28T08:51:39.928Z,3.80
2022-12-28T08:53:42.719Z,3.80
2022-12-28T08:55:44.741Z,3.50
2022-12-28T08:57:46.939Z,3.33
2022-12-28T08:59:48.950Z,3.60
2022-12-28T09:01:51.043Z,3.60
2022-12-28T09:03:57.537Z,3.27
2022-12-28T09:06:02.785Z,3.43
2022-12-28T09:08:05.107Z,3.83
2022-12-28T09:10:07.748Z,3.80
2022-12-28T09:12:09.805Z,3.60
2022-12-28T09:14:20.365Z,3.40
2022-12-28T09:16:27.141Z,3.97
2022-12-28T09:18:29.394Z,3.70
2022-12-28T09:20:31.337Z,4.00
2022-12-28T09:22:33.327Z,3.93
2022-12-28T09:24:35.272Z,3.77
2022-12-28T09:26:38.405Z,3.73
2022-12-28T09:28:44.975Z,4.23
2022-12-28T09:30:47.037Z,3.40
2022-12-28T09:33:09.023Z,3.40
2022-12-28T09:35:11.001Z,3.37
2022-12-28T09:37:13.009Z,4.00
2022-12-28T09:39:17.623Z,4.77
2022-12-28T09:41:34.597Z,4.30
2022-12-28T09:43:40.871Z,4.30
2022-12-28T09:45:44.113Z,4.70
2022-12-28T09:47:49.878Z,4.40
2022-12-28T09:50:11.940Z,4.53
2022-12-28T09:52:13.979Z,4.57
2022-12-28T09:54:16.421Z,4.17
2022-12-28T09:56:29.116Z,4.43
2022-12-28T09:58:33.336Z,4.60
2022-12-28T10:00:42.125Z,4.10
2022-12-28T10:02:47.506Z,4.70
2022-12-28T10:04:50.596Z,4.27
2022-12-28T10:06:53.641Z,3.90
2022-12-28T10:08:58.317Z,4.20
2022-12-28T10:11:02.120Z,4.20
2022-12-28T10:13:45.890Z,3.53
2022-12-28T10:15:41.446Z,3.87
2022-12-28T10:17:44.072Z,4.23
2022-12-28T10:19:47.479Z,3.70
2022-12-28T10:21:59.845Z,3.60
2022-12-28T10:24:31.319Z,3.50
2022-12-28T10:26:28.619Z,3.67
2022-12-28T10:28:57.488Z,3.90
2022-12-28T10:31:08.474Z,3.90
2022-12-28T10:33:16.707Z,3.70
2022-12-28T10:35:27.249Z,3.67
2022-12-28T10:37:35.242Z,3.50
2022-12-28T10:39:37.595Z,3.80
2022-12-28T10:41:41.146Z,3.40
2022-12-28T10:43:46.967Z,3.90
2022-12-28T10:45:50.211Z,4.00
2022-12-28T10:47:54.266Z,3.63
2022-12-28T10:50:35.504Z,3.50
2022-12-28T10:52:20.729Z,2.70
2022-12-28T10:54:28.211Z,3.63
2022-12-28T10:56:47.524Z,3.47
2022-12-28T10:59:19.637Z,3.27
2022-12-28T11:01:28.366Z,3.87
2022-12-28T11:03:35.833Z,2.93
2022-12-28T11:05:37.989Z,3.27
2022-12-28T11:07:45.497Z,3.23
2022-12-28T11:09:47.600Z,3.50
2022-12-28T11:11:52.345Z,3.43
2022-12-28T11:14:10.531Z,3.40
2022-12-28T11:16:13.820Z,2.97
2022-12-28T11:18:17.841Z,3.17
2022-12-28T11:20:24.699Z,3.30
2022-12-28T11:22:28.835Z,2.87
2022-12-28T11:24:37.664Z,3.30
2022-12-28T11:26:50.066Z,3.50
2022-12-28T11:28:53.090Z,3.40
2022-12-28T11:30:55.511Z,3.70
2022-12-28T11:33:02.219Z,3.33
2022-12-28T11:35:04.854Z,2.83
2022-12-28T11:37:13.270Z,3.50
2022-12-28T11:39:47.617Z,3.10
2022-12-28T11:42:10.512Z,3.47
2022-12-28T11:44:42.481Z,3.13
2022-12-28T11:46:58.969Z,3.20
2022-12-28T11:49:03.621Z,3.00
2022-12-28T11:51:06.642Z,3.63
2022-12-28T11:53:31.419Z,3.50
2022-12-28T11:55:58.395Z,3.30
2022-12-28T11:58:43.356Z,4.17
2022-12-28T12:00:48.654Z,3.20
2022-12-28T12:02:58.993Z,2.53
2022-12-28T12:05:35.740Z,2.97
2022-12-28T12:07:48.049Z,3.33
2022-12-28T12:10:14.242Z,2.87
2022-12-28T12:12:18.180Z,3.47
2022-12-28T12:14:27.476Z,2.73
2022-12-28T12:16:47.410Z,3.30
2022-12-28T12:18:52.410Z,3.10
2022-12-28T12:21:15.121Z,3.00
2022-12-28T12:23:36.165Z,3.20
2022-12-28T12:25:41.254Z,2.77
2022-12-28T12:27:52.087Z,3.40
2022-12-28T12:30:00.478Z,3.10
2022-12-28T12:32:04.719Z,3.10
2022-12-28T12:34:24.634Z,2.87
2022-12-28T12:36:37.149Z,2.77
2022-12-28T12:39:19.183Z,3.30
2022-12-28T12:41:27.209Z,3.00
2022-12-28T12:43:33.468Z,2.80
2022-12-28T12:46:24.652Z,4.20
2022-12-28T12:48:45.404Z,3.03
2022-12-28T12:50:55.660Z,2.70
2022-12-28T12:53:19.371Z,3.13
2022-12-28T12:55:52.123Z,2.50
2022-12-28T12:58:05.866Z,3.30
2022-12-28T13:00:22.605Z,3.00
2022-12-28T13:02:49.460Z,2.70
2022-12-28T13:04:51.731Z,2.60
2022-12-28T13:06:57.562Z,2.77
2022-12-28T13:09:05.268Z,2.77
2022-12-28T13:11:12.082Z,3.63
2022-12-28T13:13:29.422Z,3.00
2022-12-28T13:15:31.822Z,2.63
2022-12-28T13:17:35.200Z,3.10
2022-12-28T13:19:37.291Z,3.13
2022-12-28T13:21:45.687Z,2.60
2022-12-28T13:23:48.409Z,3.07
2022-12-28T13:25:52.966Z,3.27
2022-12-28T13:27:56.109Z,2.30
2022-12-28T13:29:58.113Z,2.77
2022-12-28T13:32:00.223Z,3.60
2022-12-28T13:34:15.756Z,2.77
2022-12-28T13:36:19.374Z,2.47
2022-12-28T13:38:21.394Z,2.70
2022-12-28T13:40:23.604Z,2.93
2022-12-28T13:42:36.753Z,2.30
2022-12-28T13:44:53.638Z,2.90
2022-12-28T13:47:07.166Z,3.80
2022-12-28T13:49:09.674Z,2.90
2022-12-28T13:51:13.679Z,2.60
2022-12-28T13:53:24.953Z,2.60
2022-12-28T13:55:47.521Z,2.30
2022-12-28T13:57:59.087Z,2.53
2022-12-28T14:00:02.003Z,2.60
2022-12-28T14:02:07.350Z,2.60
2022-12-28T14:04:51.823Z,2.97
2022-12-28T14:06:42.292Z,2.67
2022-12-28T14:08:44.734Z,2.40
2022-12-28T14:10:47.292Z,3.07
2022-12-28T14:12:50.248Z,2.90
2022-12-28T14:14:52.751Z,2.47
2022-12-28T14:16:55.117Z,2.27
2022-12-28T14:18:57.592Z,3.03
2022-12-28T14:21:00.547Z,3.00
2022-12-28T14:23:22.940Z,2.97
2022-12-28T14:25:25.114Z,2.70
2022-12-28T14:27:27.505Z,2.70
2022-12-28T14:29:34.323Z,2.60
2022-12-28T14:31:36.604Z,3.00
2022-12-28T14:33:51.205Z,2.70
2022-12-28T14:35:58.110Z,2.37
2022-12-28T14:38:00.811Z,2.73
2022-12-28T14:40:04.782Z,3.47
2022-12-28T14:42:22.982Z,3.10
2022-12-28T14:44:38.448Z,2.93
2022-12-28T14:46:41.394Z,2.80
2022-12-28T14:48:45.063Z,2.70
2022-12-28T14:51:05.453Z,2.97
2022-12-28T14:53:11.626Z,3.60
2022-12-28T14:55:24.676Z,2.90
2022-12-28T14:57:41.268Z,2.67
2022-12-28T14:59:46.354Z,2.47
2022-12-28T15:01:48.840Z,2.47
2022-12-28T15:03:58.675Z,2.67
2022-12-28T15:06:02.508Z,3.00
2022-12-28T15:08:04.891Z,2.50
2022-12-28T15:10:09.538Z,2.40
2022-12-28T15:12:22.908Z,1.87
2022-12-28T15:14:25.425Z,2.50
2022-12-28T15:16:27.498Z,2.80
2022-12-28T15:18:30.871Z,2.70
2022-12-28T15:20:35.351Z,2.40
2022-12-28T15:22:37.655Z,3.27
2022-12-28T15:24:41.664Z,2.50
2022-12-28T15:26:43.839Z,2.30
2022-12-28T15:28:45.942Z,2.57
2022-12-28T15:30:47.971Z,3.97
2022-12-28T15:32:49.985Z,2.63
2022-12-28T15:34:52.005Z,3.30
2022-12-28T15:36:53.944Z,2.80
2022-12-28T15:38:56.956Z,2.70
2022-12-28T15:40:59.656Z,2.27
2022-12-28T15:43:01.620Z,2.47
2022-12-28T15:45:04.259Z,2.73
2022-12-28T15:47:06.909Z,2.40
2022-12-28T15:49:12.066Z,2.40
2022-12-28T15:51:14.110Z,2.90
2022-12-28T15:53:18.928Z,2.73
2022-12-28T15:55:21.019Z,2.73
2022-12-28T15:57:23.252Z,2.87
2022-12-28T15:59:26.637Z,2.50
2022-12-28T16:01:30.313Z,2.63
2022-12-28T16:03:32.496Z,2.60
2022-12-28T16:05:34.705Z,2.90
2022-12-28T16:07:37.038Z,3.27
2022-12-28T16:09:39.035Z,3.10
2022-12-28T16:11:41.823Z,2.50
2022-12-28T16:13:44.543Z,2.67
2022-12-28T16:15:46.534Z,2.70
2022-12-28T16:17:55.361Z,2.80
2022-12-28T16:19:59.210Z,2.90
2022-12-28T16:22:01.252Z,2.60
2022-12-28T16:24:03.233Z,3.07
2022-12-28T16:26:05.648Z,3.30
2022-12-28T16:28:07.730Z,2.80
2022-12-28T16:30:10.334Z,2.87
2022-12-28T16:32:12.934Z,3.00
2022-12-28T16:34:17.250Z,2.73
2022-12-28T16:36:20.126Z,2.70
2022-12-28T16:38:23.411Z,3.13
2022-12-28T16:40:25.861Z,2.60
2022-12-28T16:42:27.869Z,3.03
2022-12-28T16:44:29.936Z,2.53
2022-12-28T16:46:32.018Z,2.43
2022-12-28T16:48:35.085Z,2.77
2022-12-28T16:50:37.153Z,2.60
2022-12-28T16:52:39.618Z,2.50
2022-12-28T16:54:41.816Z,2.53
2022-12-28T16:56:45.222Z,2.37
2022-12-28T16:58:49.303Z,2.50
2022-12-28T17:00:51.594Z,2.40
2022-12-28T17:02:53.669Z,2.70
2022-12-28T17:04:55.739Z,2.67
2022-12-28T17:06:57.803Z,3.03
2022-12-28T17:09:03.931Z,2.90
2022-12-28T17:11:10.814Z,2.77
2022-12-28T17:13:12.823Z,3.40
2022-12-28T17:15:14.833Z,2.57
2022-12-28T17:17:16.812Z,2.40
2022-12-28T17:19:18.937Z,2.90
2022-12-28T17:21:21.020Z,2.70
2022-12-28T17:23:23.666Z,2.83
2022-12-28T17:25:25.876Z,3.07
2022-12-28T17:27:27.877Z,2.70
2022-12-28T17:29:29.894Z,2.83
2022-12-28T17:31:32.191Z,3.00
2022-12-28T17:33:39.162Z,3.10
2022-12-28T17:35:41.859Z,2.47
2022-12-28T17:37:43.947Z,3.07
2022-12-28T17:39:46.135Z,2.90
2022-12-28T17:41:48.406Z,3.53
2022-12-28T17:43:52.962Z,2.90
2022-12-28T17:45:55.231Z,2.47
2022-12-28T17:47:57.177Z,3.40
2022-12-28T17:49:59.206Z,3.03
2022-12-28T17:52:01.199Z,3.60
2022-12-28T17:54:03.684Z,3.03
2022-12-28T17:56:08.407Z,3.40
2022-12-28T17:58:10.495Z,2.97
2022-12-28T18:00:13.280Z,2.63
2022-12-28T18:02:16.259Z,3.17
2022-12-28T18:04:18.682Z,3.40
2022-12-28T18:06:20.999Z,3.00
2022-12-28T18:08:23.337Z,3.27
2022-12-28T18:10:25.304Z,3.00
2022-12-28T18:12:27.458Z,2.50
2022-12-28T18:14:29.694Z,2.70
2022-12-28T18:16:31.700Z,3.50
2022-12-28T18:18:33.762Z,3.10
2022-12-28T18:20:35.772Z,3.73
2022-12-28T18:22:38.207Z,3.30
2022-12-28T18:24:40.230Z,3.50
2022-12-28T18:26:42.265Z,3.50
2022-12-28T18:28:44.529Z,3.93
2022-12-28T18:30:46.556Z,4.10
2022-12-28T18:32:48.642Z,4.00
2022-12-28T18:34:50.661Z,3.80
2022-12-28T18:36:52.692Z,3.10
2022-12-28T18:38:54.787Z,3.60
2022-12-28T18:40:58.154Z,3.00
2022-12-28T18:43:00.240Z,3.17
2022-12-28T18:45:02.334Z,3.47
2022-12-28T18:47:04.596Z,3.33
2022-12-28T18:49:06.610Z,3.13
2022-12-28T18:51:11.493Z,3.30
2022-12-28T18:53:13.446Z,3.90
2022-12-28T18:55:15.596Z,4.10
2022-12-28T18:57:17.556Z,2.90
2022-12-28T18:59:19.562Z,3.00
2022-12-28T19:03:53.472Z,2.63
2022-12-28T19:06:02.934Z,2.53
2022-12-28T19:08:05.407Z,2.30
2022-12-28T19:10:15.804Z,3.97
2022-12-28T19:12:17.771Z,3.17
2022-12-28T19:14:19.972Z,3.37
2022-12-28T19:16:28.797Z,2.73
2022-12-28T19:18:33.901Z,3.20
2022-12-28T19:20:35.985Z,2.87
2022-12-28T19:22:37.940Z,3.10
2022-12-28T19:24:39.927Z,3.20
2022-12-28T19:26:41.926Z,3.50
2022-12-28T19:28:43.979Z,2.77
2022-12-28T19:30:45.935Z,3.00
2022-12-28T19:32:47.975Z,3.07
2022-12-28T19:34:50.001Z,3.10
2022-12-28T19:36:52.066Z,3.17
2022-12-28T19:38:57.986Z,3.00
2022-12-28T19:41:07.969Z,3.23
2022-12-28T19:43:09.942Z,3.43
2022-12-28T19:45:12.128Z,3.27
2022-12-28T19:47:14.079Z,3.60
2022-12-28T19:49:16.092Z,4.10
2022-12-28T19:51:18.014Z,3.67
2022-12-28T19:53:19.980Z,2.90
2022-12-28T19:55:22.016Z,2.93
2022-12-28T19:57:24.016Z,3.00
2022-12-28T19:59:26.038Z,3.17
2022-12-28T20:01:28.785Z,3.37
2022-12-28T20:03:30.892Z,3.20
2022-12-28T20:05:35.745Z,3.10
2022-12-28T20:07:38.548Z,3.40
2022-12-28T20:09:40.618Z,2.90
2022-12-28T20:11:43.259Z,3.00
2022-12-28T20:13:49.954Z,3.40
2022-12-28T20:15:52.052Z,3.40
2022-12-28T20:17:54.045Z,3.53
2022-12-28T20:19:56.071Z,3.47
2022-12-28T20:21:58.069Z,2.43
2022-12-28T20:24:03.283Z,3.37
2022-12-28T20:26:05.470Z,3.07
2022-12-28T20:28:07.473Z,2.97
2022-12-28T20:30:09.958Z,3.10
2022-12-28T20:32:12.045Z,3.00
2022-12-28T20:34:14.149Z,2.57
2022-12-28T20:36:18.519Z,2.90
2022-12-28T20:38:20.532Z,2.63
2022-12-28T20:40:22.521Z,2.90
2022-12-28T20:42:43.159Z,2.80
2022-12-28T20:44:45.155Z,2.67
2022-12-28T20:46:47.309Z,2.90
2022-12-28T20:48:49.340Z,3.07
2022-12-28T20:50:58.794Z,2.77
2022-12-28T20:53:00.777Z,2.80
2022-12-28T20:55:02.783Z,2.60
2022-12-28T20:57:04.853Z,2.90
2022-12-28T20:59:07.312Z,2.57
2022-12-28T21:01:11.956Z,3.30
2022-12-28T21:03:14.304Z,2.70
2022-12-28T21:05:16.461Z,3.07
2022-12-28T21:07:19.675Z,2.83
2022-12-28T21:09:21.745Z,3.10
2022-12-28T21:11:23.858Z,2.97
2022-12-28T21:13:26.563Z,2.03
2022-12-28T21:15:28.658Z,2.30
2022-12-28T21:17:30.614Z,2.27
2022-12-28T21:19:32.566Z,2.87
2022-12-28T21:21:34.539Z,2.57
2022-12-28T21:23:36.575Z,2.70
2022-12-28T21:25:38.616Z,2.83
2022-12-28T21:27:40.651Z,3.00
2022-12-28T21:29:42.781Z,2.13
2022-12-28T21:31:44.871Z,2.30
2022-12-28T21:33:46.958Z,2.23
2022-12-28T21:36:04.102Z,2.90
2022-12-28T21:38:06.095Z,2.63
2022-12-28T21:40:09.450Z,2.57
2022-12-28T21:42:11.498Z,2.60
2022-12-28T21:44:14.665Z,2.63
2022-12-28T21:46:16.711Z,2.70
2022-12-28T21:48:18.739Z,2.37
2022-12-28T21:50:20.695Z,2.60
2022-12-28T21:52:22.948Z,2.50
2022-12-28T21:54:25.786Z,2.80
2022-12-28T21:56:28.863Z,3.07
2022-12-28T21:58:30.865Z,2.57
2022-12-28T22:00:51.838Z,3.07
2022-12-28T22:03:12.777Z,3.50
2022-12-28T22:05:33.713Z,2.43
2022-12-28T22:07:35.846Z,2.40
2022-12-28T22:09:57.053Z,3.40
2022-12-28T22:12:17.795Z,2.40
2022-12-28T22:14:19.977Z,2.33
2022-12-28T22:16:22.039Z,2.83
2022-12-28T22:20:47.928Z,2.57
2022-12-28T22:22:49.890Z,2.20
2022-12-28T22:24:51.910Z,2.77
2022-12-28T22:26:53.995Z,2.57
2022-12-28T22:28:56.085Z,2.50
2022-12-28T22:30:58.061Z,2.30
2022-12-28T22:33:00.153Z,2.43
2022-12-28T22:35:02.277Z,2.63
2022-12-28T22:37:04.390Z,2.50
2022-12-28T22:39:06.547Z,2.17
2022-12-28T22:41:09.125Z,2.17
2022-12-28T22:43:11.096Z,2.30
2022-12-28T22:45:15.651Z,2.30
2022-12-28T22:47:17.766Z,2.60
2022-12-28T22:49:19.895Z,2.33
2022-12-28T22:51:21.950Z,2.47
2022-12-28T22:53:23.941Z,2.33
2022-12-28T22:55:25.916Z,2.57
2022-12-28T22:57:28.380Z,2.33
2022-12-28T22:59:30.368Z,2.50
2022-12-28T23:01:34.792Z,2.50
2022-12-28T23:03:38.738Z,2.27
2022-12-28T23:05:40.692Z,2.20
2022-12-28T23:07:42.725Z,2.40
2022-12-28T23:09:44.665Z,2.83
2022-12-28T23:11:47.682Z,2.40
2022-12-28T23:13:49.603Z,2.70
2022-12-28T23:16:03.685Z,2.33
2022-12-28T23:18:24.208Z,2.10
2022-12-28T23:20:45.033Z,2.40
2022-12-28T23:23:05.412Z,2.43
2022-12-28T23:25:30.233Z,1.93
2022-12-28T23:27:40.295Z,2.43
2022-12-28T23:29:42.406Z,2.80
2022-12-28T23:31:44.320Z,2.43
2022-12-28T23:33:46.277Z,2.50
2022-12-28T23:35:48.711Z,2.83
2022-12-28T23:37:51.044Z,2.37
2022-12-28T23:39:53.003Z,2.40
2022-12-28T23:41:55.060Z,3.20
2022-12-28T23:43:57.061Z,2.10
2022-12-28T23:46:03.385Z,2.60
2022-12-28T23:48:05.633Z,2.00
2022-12-28T23:50:07.954Z,2.60
2022-12-28T23:52:10.118Z,2.63
2022-12-28T23:54:15.119Z,2.17
2022-12-28T23:56:17.167Z,2.43
2022-12-28T23:58:19.141Z,2.30
